Time;durP1;ratioP1;P1;durP2;ratioP2;P2;SDS_P1;SDS_P2;PMS_P1;PMS_P2;Temp;Humidity;BMP_temperature;BMP_pressure;BME280_temperature;BME280_humidity;BME280_pressure;Samples;Min_cycle;Max_cycle;Signal;HPM_P1;HPM_P2
2022/09/11 00:01:02;;;;;;;;;;;17.80;75.70;;;;;;9181714;19;20052;-66
2022/09/11 00:04:06;;;;;;;33.90;20.35;;;17.80;75.70;;;;;;9180699;19;19935;-64
2022/09/11 00:07:12;;;;;;;;;;;17.70;75.60;;;;;;9179791;19;20031;-61
2022/09/11 00:10:16;;;;;;;34.40;20.63;;;17.70;75.70;;;;;;9177574;19;19914;-65
2022/09/11 00:13:22;;;;;;;33.63;20.55;;;17.70;75.60;;;;;;9177423;19;20473;-64
2022/09/11 00:16:28;;;;;;;34.83;21.15;;;17.60;75.70;;;;;;9179379;19;20116;-64
2022/09/11 00:19:32;;;;;;;36.38;21.02;;;17.60;75.90;;;;;;9181263;19;20011;-64
2022/09/11 00:22:38;;;;;;;36.05;19.92;;;17.60;75.90;;;;;;9181081;19;20047;-64
2022/09/11 00:25:42;;;;;;;36.65;21.23;;;17.50;76.00;;;;;;9181192;19;20007;-64
2022/09/11 00:28:46;;;;;;;34.08;20.00;;;17.50;76.10;;;;;;9177016;19;20015;-63
2022/09/11 00:31:50;;;;;;;35.97;20.73;;;17.50;76.20;;;;;;9179729;19;20026;-62
2022/09/11 00:34:54;;;;;;;34.75;20.80;;;17.40;76.20;;;;;;9173965;19;20047;-63
2022/09/11 00:37:59;;;;;;;32.10;20.35;;;17.40;76.20;;;;;;9180311;19;20014;-64
2022/09/11 00:41:05;;;;;;;40.97;21.70;;;17.30;76.30;;;;;;9179097;19;20105;-64
2022/09/11 00:44:25;;;;;;;40.35;21.58;;;17.30;76.40;;;;;;9179724;19;20056;-62
2022/09/11 00:47:31;;;;;;;38.25;21.02;;;17.30;76.40;;;;;;9177806;19;20478;-63
2022/09/11 00:50:34;;;;;;;35.17;20.67;;;17.20;76.40;;;;;;9177422;19;20026;-61
2022/09/11 00:53:40;;;;;;;47.42;23.00;;;17.30;76.50;;;;;;9179324;19;20040;-64
2022/09/11 00:56:44;;;;;;;39.95;20.75;;;17.20;76.60;;;;;;9179958;19;20463;-64
2022/09/11 00:59:49;;;;;;;44.20;22.55;;;17.20;76.60;;;;;;9178444;19;20011;-64
2022/09/11 01:02:55;;;;;;;33.97;20.33;;;17.10;76.70;;;;;;9177558;19;20031;-63
2022/09/11 01:05:59;;;;;;;39.17;21.73;;;17.10;76.70;;;;;;9179155;19;20026;-63
2022/09/11 01:09:06;;;;;;;39.90;21.77;;;17.10;76.80;;;;;;9174870;19;20007;-64
2022/09/11 01:12:15;;;;;;;42.45;22.60;;;17.10;76.90;;;;;;9179507;19;20086;-63
2022/09/11 01:15:27;;;;;;;51.03;24.02;;;17.00;76.90;;;;;;9177570;19;20084;-63
2022/09/11 01:18:35;;;;;;;44.17;22.80;;;17.00;77.00;;;;;;9176204;19;20114;-64
2022/09/11 01:22:11;;;;;;;43.95;24.05;;;17.00;77.00;;;;;;9176278;19;20018;-63
2022/09/11 01:25:26;;;;;;;41.05;22.02;;;17.00;77.20;;;;;;9177929;19;20019;-64
2022/09/11 01:28:39;;;;;;;41.20;22.98;;;17.00;77.20;;;;;;9173736;19;20800;-63
2022/09/11 01:31:48;;;;;;;43.92;23.40;;;17.00;77.30;;;;;;9176591;19;20047;-64
2022/09/11 01:34:58;;;;;;;41.35;23.23;;;17.00;77.30;;;;;;9172534;19;20015;-63
2022/09/11 01:38:06;;;;;;;42.13;23.98;;;16.90;77.20;;;;;;9177604;19;20014;-64
2022/09/11 01:41:14;;;;;;;43.63;23.42;;;17.00;77.30;;;;;;9175887;19;20042;-64
2022/09/11 01:44:26;;;;;;;46.88;24.35;;;16.90;77.30;;;;;;9178330;19;20489;-63
2022/09/11 01:47:30;;;;;;;46.13;24.40;;;16.90;77.40;;;;;;9175927;19;20015;-64
2022/09/11 01:50:37;;;;;;;43.63;24.80;;;16.90;77.40;;;;;;9177327;19;20526;-64
2022/09/11 01:53:43;;;;;;;47.55;24.10;;;16.90;77.50;;;;;;9177317;19;20034;-63
2022/09/11 01:56:55;;;;;;;43.53;24.50;;;16.90;77.50;;;;;;9175006;19;20555;-65
2022/09/11 02:00:07;;;;;;;46.67;23.85;;;16.90;77.60;;;;;;9175480;19;20025;-65
2022/09/11 02:03:22;;;;;;;50.88;25.73;;;16.90;77.60;;;;;;9182258;19;20018;-65
2022/09/11 02:06:31;;;;;;;42.78;23.42;;;16.90;77.60;;;;;;9184622;19;20114;-65
2022/09/11 02:09:40;;;;;;;42.08;24.17;;;16.80;77.70;;;;;;9181140;19;20032;-64
2022/09/11 02:12:48;;;;;;;44.08;23.00;;;16.80;77.70;;;;;;9184427;19;20543;-63
2022/09/11 02:15:59;;;;;;;37.72;22.80;;;16.80;77.70;;;;;;9184438;19;20110;-64
2022/09/11 02:19:05;;;;;;;35.15;20.02;;;16.80;77.80;;;;;;9182553;19;20014;-63
2022/09/11 02:22:09;;;;;;;35.20;20.48;;;16.80;77.80;;;;;;9183151;19;20788;-63
2022/09/11 02:25:14;;;;;;;36.28;21.05;;;16.80;77.80;;;;;;9184481;19;20400;-64
2022/09/11 02:28:21;;;;;;;36.85;21.10;;;16.80;77.80;;;;;;9180886;19;20022;-65
2022/09/11 02:31:27;;;;;;;35.92;20.92;;;16.80;78.50;;;;;;9183118;19;20025;-64
2022/09/11 02:34:35;;;;;;;37.03;21.35;;;16.80;77.90;;;;;;9178459;19;20010;-65
2022/09/11 02:37:50;;;;;;;37.20;22.13;;;16.70;77.90;;;;;;9182829;19;20014;-64
2022/09/11 02:41:02;;;;;;;34.58;22.10;;;16.70;78.10;;;;;;9181610;19;20014;-64
2022/09/11 02:44:15;;;;;;;33.60;20.55;;;16.70;78.10;;;;;;9181643;19;20078;-63
2022/09/11 02:47:34;;;;;;;33.92;19.80;;;16.70;78.10;;;;;;9180973;19;20407;-64
2022/09/11 02:50:46;;;;;;;34.33;20.85;;;16.70;78.20;;;;;;9182263;19;20028;-63
2022/09/11 02:54:00;;;;;;;34.20;20.73;;;16.70;78.80;;;;;;9181597;19;20034;-64
2022/09/11 02:57:14;;;;;;;33.33;20.35;;;16.70;78.20;;;;;;9181947;19;20034;-64
2022/09/11 03:00:18;;;;;;;40.03;20.15;;;16.60;78.20;;;;;;9180045;19;20344;-63
2022/09/11 03:03:24;;;;;;;32.95;19.83;;;16.70;78.30;;;;;;9181653;19;20039;-64
2022/09/11 03:06:28;;;;;;;36.33;20.58;;;16.70;78.40;;;;;;9181326;19;20029;-63
2022/09/11 03:09:32;;;;;;;31.75;19.23;;;16.60;78.40;;;;;;9177865;19;20022;-64
2022/09/11 03:12:41;;;;;;;35.42;20.45;;;16.60;78.30;;;;;;9180930;19;20015;-64
2022/09/11 03:15:47;;;;;;;33.20;20.15;;;16.60;78.40;;;;;;9181477;19;20463;-63
2022/09/11 03:18:53;;;;;;;34.63;20.98;;;16.60;78.40;;;;;;9180642;19;20033;-63
2022/09/11 03:21:57;;;;;;;33.88;19.50;;;16.60;78.50;;;;;;9181364;19;20444;-63
2022/09/11 03:25:01;;;;;;;33.88;19.13;;;16.60;78.50;;;;;;9182693;19;20018;-64
2022/09/11 03:28:07;;;;;;;29.25;17.67;;;16.50;78.50;;;;;;9178670;19;20006;-64
2022/09/11 03:31:12;;;;;;;28.55;18.15;;;16.50;78.50;;;;;;9181124;19;20408;-64
2022/09/11 03:34:18;;;;;;;29.35;17.20;;;16.50;78.50;;;;;;9180177;19;20021;-64
2022/09/11 03:37:23;;;;;;;28.13;18.02;;;16.50;78.60;;;;;;9180804;19;20015;-63
2022/09/11 03:40:27;;;;;;;;;;;16.50;78.60;;;;;;9180442;19;20082;-64
2022/09/11 03:43:30;;;;;;;26.30;17.30;;;16.50;78.60;;;;;;9181780;19;19911;-63
2022/09/11 03:46:37;;;;;;;27.42;17.10;;;16.50;78.50;;;;;;9181794;19;20007;-64
2022/09/11 03:49:42;;;;;;;22.63;15.23;;;16.50;78.60;;;;;;9175996;19;20015;-63
2022/09/11 03:52:47;;;;;;;23.10;15.23;;;16.40;78.60;;;;;;9179269;19;20482;-64
2022/09/11 03:55:51;;;;;;;26.70;15.27;;;16.40;78.70;;;;;;9178904;19;20029;-64
2022/09/11 03:58:55;;;;;;;;;;;16.40;78.70;;;;;;9181212;19;20026;-64
2022/09/11 04:02:00;;;;;;;22.92;15.40;;;16.40;78.70;;;;;;9179571;19;19948;-64
2022/09/11 04:05:07;;;;;;;24.42;15.77;;;16.40;78.50;;;;;;9179746;19;20085;-64
2022/09/11 04:08:12;;;;;;;24.33;15.88;;;16.40;78.60;;;;;;9178380;19;20010;-64
2022/09/11 04:11:19;;;;;;;24.70;14.57;;;16.30;78.60;;;;;;9179891;19;20011;-63
2022/09/11 04:14:23;;;;;;;24.90;16.08;;;16.30;79.30;;;;;;9179493;19;20025;-65
2022/09/11 04:17:30;;;;;;;23.33;15.60;;;16.30;78.70;;;;;;9179979;19;20391;-64
2022/09/11 04:20:39;;;;;;;25.55;16.00;;;16.30;78.80;;;;;;9180963;19;20641;-64
2022/09/11 04:23:44;;;;;;;23.30;14.85;;;16.30;78.90;;;;;;9178788;19;20452;-64
2022/09/11 04:26:48;;;;;;;27.15;15.13;;;16.20;78.80;;;;;;9178975;19;20031;-64
2022/09/11 04:30:03;;;;;;;23.65;15.23;;;16.20;78.80;;;;;;9178510;19;20018;-62
2022/09/11 04:33:08;;;;;;;21.45;14.82;;;16.20;78.90;;;;;;9178499;19;20475;-62
2022/09/11 04:36:15;;;;;;;;;;;16.20;78.90;;;;;;9175950;19;20011;-62
2022/09/11 04:39:18;;;;;;;21.30;14.35;;;16.20;78.80;;;;;;9180097;19;19923;-64
2022/09/11 04:42:23;;;;;;;24.75;16.40;;;16.20;78.70;;;;;;9178938;19;20057;-63
2022/09/11 04:45:32;;;;;;;23.98;15.70;;;16.20;78.80;;;;;;9177767;19;20018;-64
2022/09/11 04:48:38;;;;;;;21.52;14.40;;;16.10;78.90;;;;;;9176247;19;20044;-64
2022/09/11 04:51:44;;;;;;;20.27;13.80;;;16.10;78.90;;;;;;9178971;19;20041;-64
2022/09/11 04:54:50;;;;;;;18.27;12.65;;;16.10;79.00;;;;;;9175311;19;20022;-65
2022/09/11 04:57:54;;;;;;;19.88;12.68;;;16.10;79.10;;;;;;9178487;19;20039;-62
2022/09/11 05:00:58;;;;;;;17.13;12.13;;;16.00;79.10;;;;;;9177718;19;20010;-64
2022/09/11 05:04:02;;;;;;;20.55;13.10;;;16.00;79.10;;;;;;9178456;19;20042;-64
2022/09/11 05:07:08;;;;;;;17.17;12.50;;;16.00;79.10;;;;;;9177832;19;20018;-62
2022/09/11 05:10:12;;;;;;;17.45;11.35;;;16.00;79.20;;;;;;9173347;19;20047;-62
2022/09/11 05:13:16;;;;;;;17.27;13.07;;;16.00;79.20;;;;;;9178076;19;20056;-64
2022/09/11 05:16:19;;;;;;;18.10;13.45;;;16.00;79.20;;;;;;9176780;19;20448;-63
2022/09/11 05:19:24;;;;;;;17.38;12.38;;;16.00;79.30;;;;;;9176649;19;20486;-65
2022/09/11 05:22:30;;;;;;;18.30;12.35;;;15.90;79.20;;;;;;9177450;19;20027;-64
2022/09/11 05:25:35;;;;;;;18.60;11.27;;;15.90;79.30;;;;;;9176532;19;20082;-64
2022/09/11 05:28:39;;;;;;;;;;;15.90;79.30;;;;;;9175003;19;20019;-66
2022/09/11 05:31:43;;;;;;;21.38;13.57;;;15.90;79.20;;;;;;9176047;19;19990;-63
2022/09/11 05:34:50;;;;;;;20.80;13.73;;;15.90;79.10;;;;;;9170573;19;20023;-64
2022/09/11 05:37:58;;;;;;;18.48;12.98;;;15.90;79.20;;;;;;9182847;19;20018;-64
2022/09/11 05:41:02;;;;;;;18.75;13.40;;;15.90;79.30;;;;;;9183028;19;20018;-63
2022/09/11 05:44:06;;;;;;;19.60;12.15;;;15.90;79.40;;;;;;9183336;19;20014;-63
2022/09/11 05:47:13;;;;;;;16.38;11.32;;;15.90;79.40;;;;;;9184489;19;20023;-64
2022/09/11 05:50:20;;;;;;;15.02;11.38;;;15.90;79.50;;;;;;9181294;19;20119;-64
2022/09/11 05:53:26;;;;;;;16.38;11.88;;;15.90;79.50;;;;;;9185195;19;20451;-64
2022/09/11 05:56:32;;;;;;;18.67;13.45;;;15.80;79.50;;;;;;9183870;19;20482;-64
2022/09/11 05:59:39;;;;;;;22.27;12.43;;;15.80;79.50;;;;;;9183914;19;20028;-65
2022/09/11 06:02:44;;;;;;;21.17;14.88;;;15.80;79.60;;;;;;9181592;19;20014;-66
2022/09/11 06:05:48;;;;;;;20.48;13.88;;;15.80;79.60;;;;;;9181214;19;20078;-65
2022/09/11 06:08:55;;;;;;;20.17;14.57;;;15.80;79.70;;;;;;9180692;19;20030;-64
2022/09/11 06:11:59;;;;;;;22.25;14.88;;;15.80;79.80;;;;;;9183246;19;20078;-63
2022/09/11 06:15:03;;;;;;;24.38;15.18;;;15.80;79.70;;;;;;9183559;19;20045;-64
2022/09/11 06:18:07;;;;;;;21.00;14.68;;;15.80;79.80;;;;;;9181081;19;20074;-64
2022/09/11 06:21:13;;;;;;;27.02;15.35;;;15.80;79.80;;;;;;9185111;19;20003;-63
2022/09/11 06:24:27;;;;;;;23.93;15.33;;;15.80;79.90;;;;;;9182021;19;20018;-64
2022/09/11 06:27:32;;;;;;;20.17;14.73;;;15.80;80.00;;;;;;9181838;19;20018;-64
2022/09/11 06:30:36;;;;;;;;;;;15.90;80.00;;;;;;9185359;19;20483;-64
2022/09/11 06:33:41;;;;;;;21.75;14.02;;;15.90;80.00;;;;;;9182040;19;19919;-63
2022/09/11 06:36:45;;;;;;;23.00;15.15;;;15.90;79.80;;;;;;9179842;19;20475;-64
2022/09/11 06:39:57;;;;;;;23.92;15.88;;;15.90;79.90;;;;;;9182375;19;20006;-63
2022/09/11 06:43:04;;;;;;;22.50;15.02;;;15.90;80.00;;;;;;9180981;19;20405;-63
2022/09/11 06:46:11;;;;;;;27.27;15.15;;;15.90;80.10;;;;;;9180539;19;20018;-63
2022/09/11 06:49:15;;;;;;;21.40;14.52;;;16.00;80.20;;;;;;9180010;19;20023;-65
2022/09/11 06:52:37;;;;;;;21.08;14.52;;;15.90;80.20;;;;;;9183355;19;20018;-63
2022/09/11 06:56:14;;;;;;;22.15;15.65;;;16.00;80.30;;;;;;9182176;19;20432;-64
2022/09/11 06:59:22;;;;;;;19.50;13.80;;;16.00;80.30;;;;;;9181727;19;20021;-64
2022/09/11 07:02:26;;;;;;;18.85;13.32;;;16.00;80.30;;;;;;9183306;19;20459;-63
2022/09/11 07:05:32;;;;;;;19.23;13.15;;;16.00;80.30;;;;;;9177133;19;20020;-63
2022/09/11 07:08:37;;;;;;;31.08;15.65;;;16.10;80.40;;;;;;9173964;19;20023;-64
2022/09/11 07:11:45;;;;;;;19.20;13.50;;;16.10;80.50;;;;;;9173230;19;20511;-63
2022/09/11 07:14:49;;;;;;;22.98;14.50;;;16.10;80.50;;;;;;9173878;19;20464;-62
2022/09/11 07:17:54;;;;;;;23.75;15.80;;;16.10;80.50;;;;;;9175826;19;20030;-63
2022/09/11 07:20:58;;;;;;;22.48;15.07;;;16.20;80.60;;;;;;9173543;19;20508;-63
2022/09/11 07:24:04;;;;;;;26.50;16.98;;;16.20;80.60;;;;;;9174225;19;20022;-63
2022/09/11 07:27:18;;;;;;;25.17;14.95;;;16.20;80.60;;;;;;9172563;19;20015;-64
2022/09/11 07:30:23;;;;;;;23.92;15.40;;;16.30;80.70;;;;;;9170516;19;20025;-64
2022/09/11 07:33:30;;;;;;;25.10;16.27;;;16.30;80.70;;;;;;9177214;19;20019;-64
2022/09/11 07:36:39;;;;;;;23.42;15.90;;;16.40;80.70;;;;;;9170924;19;20053;-64
2022/09/11 07:39:45;;;;;;;24.80;16.50;;;16.40;80.80;;;;;;9173091;19;20400;-65
2022/09/11 07:42:56;;;;;;;25.55;16.30;;;16.50;80.90;;;;;;9167064;19;20798;-65
2022/09/11 07:46:00;;;;;;;39.25;20.48;;;16.60;81.00;;;;;;9172032;19;20051;-64
2022/09/11 07:49:06;;;;;;;39.15;20.10;;;16.60;81.00;;;;;;9178198;19;20475;-64
2022/09/11 07:52:11;;;;;;;30.33;18.45;;;16.60;80.90;;;;;;9181360;19;20090;-63
2022/09/11 07:55:25;;;;;;;29.95;19.08;;;16.70;81.00;;;;;;9181318;19;20021;-64
2022/09/11 07:58:36;;;;;;;24.40;15.93;;;16.80;81.00;;;;;;9179736;19;20011;-65
2022/09/11 08:01:42;;;;;;;24.73;17.05;;;16.90;81.10;;;;;;9179874;19;20014;-64
2022/09/11 08:04:46;;;;;;;24.05;15.35;;;17.00;81.10;;;;;;9181400;19;20078;-64
2022/09/11 08:07:50;;;;;;;20.90;15.10;;;17.10;81.00;;;;;;9178275;19;20019;-64
2022/09/11 08:10:55;;;;;;;20.77;15.10;;;17.10;81.00;;;;;;9167531;19;20018;-64
2022/09/11 08:14:00;;;;;;;24.90;14.82;;;17.20;80.90;;;;;;9172897;19;20015;-64
2022/09/11 08:17:04;;;;;;;23.77;14.88;;;17.20;80.90;;;;;;9172584;19;20652;-64
2022/09/11 08:20:09;;;;;;;18.70;12.98;;;17.30;80.90;;;;;;9174086;19;20117;-66
2022/09/11 08:23:14;;;;;;;20.83;14.57;;;17.40;80.90;;;;;;9173344;19;20025;-64
2022/09/11 08:26:21;;;;;;;19.42;13.75;;;17.40;81.00;;;;;;9173010;19;20033;-65
2022/09/11 08:29:29;;;;;;;17.38;12.85;;;17.50;81.00;;;;;;9169453;19;20121;-66
2022/09/11 08:32:33;;;;;;;19.73;14.48;;;17.60;81.00;;;;;;9172077;19;20025;-64
2022/09/11 08:35:37;;;;;;;19.67;13.75;;;17.60;80.90;;;;;;9168134;19;20021;-64
2022/09/11 08:38:42;;;;;;;18.65;13.80;;;17.70;80.90;;;;;;9168531;19;20022;-64
2022/09/11 08:41:49;;;;;;;19.67;13.38;;;17.80;80.90;;;;;;9172428;19;20527;-64
2022/09/11 08:45:00;;;;;;;21.05;13.73;;;17.80;80.90;;;;;;9171891;19;20118;-64
2022/09/11 08:48:13;;;;;;;18.20;13.93;;;17.90;80.90;;;;;;9173371;19;20022;-65
2022/09/11 08:51:19;;;;;;;21.80;15.13;;;18.00;80.80;;;;;;9174406;19;20499;-64
2022/09/11 08:54:27;;;;;;;23.70;15.48;;;18.00;80.80;;;;;;9172405;19;20019;-63
2022/09/11 08:57:45;;;;;;;20.98;14.23;;;18.10;80.90;;;;;;9163955;19;20027;-63
2022/09/11 09:00:59;;;;;;;25.95;15.05;;;18.20;80.90;;;;;;9162773;19;20015;-66
2022/09/11 09:04:16;;;;;;;24.38;15.02;;;18.20;80.90;;;;;;9165033;19;20018;-64
2022/09/11 09:07:31;;;;;;;28.45;17.75;;;18.30;80.90;;;;;;9167796;19;20018;-65
2022/09/11 09:10:46;;;;;;;25.33;15.77;;;18.40;80.90;;;;;;9168336;19;20665;-64
2022/09/11 09:14:05;;;;;;;23.67;15.55;;;18.50;81.00;;;;;;9169138;19;20029;-65
2022/09/11 09:17:18;;;;;;;22.15;15.13;;;18.60;80.90;;;;;;9170584;19;20022;-65
2022/09/11 09:20:27;;;;;;;24.05;15.50;;;18.70;80.90;;;;;;9169920;19;20028;-65
2022/09/11 09:23:36;;;;;;;23.58;15.43;;;18.80;80.90;;;;;;9170352;19;20357;-64
2022/09/11 09:26:41;;;;;;;21.35;14.60;;;18.90;81.00;;;;;;9171342;19;20023;-64
2022/09/11 09:29:49;;;;;;;22.48;13.68;;;19.10;81.10;;;;;;9167316;19;20022;-65
2022/09/11 09:32:59;;;;;;;21.48;14.00;;;19.30;81.20;;;;;;9169042;19;20042;-64
2022/09/11 09:36:16;;;;;;;20.42;13.63;;;19.50;81.10;;;;;;9160694;19;20473;-65
2022/09/11 09:39:22;;;;;;;15.90;10.40;;;19.80;81.10;;;;;;9171308;19;20570;-64
2022/09/11 09:42:57;;;;;;;16.40;10.65;;;20.00;80.70;;;;;;9169455;19;20014;-63
2022/09/11 09:46:18;;;;;;;13.75;10.10;;;20.30;80.40;;;;;;9167598;19;20022;-64
2022/09/11 09:49:27;;;;;;;11.35;8.15;;;20.50;80.00;;;;;;9168753;19;20107;-63
2022/09/11 09:52:35;;;;;;;15.93;8.55;;;20.60;79.60;;;;;;9168959;19;20052;-63
2022/09/11 09:55:40;;;;;;;13.27;8.35;;;20.80;79.30;;;;;;9168733;19;20074;-65
2022/09/11 09:58:53;;;;;;;13.55;7.95;;;20.90;79.00;;;;;;9167951;19;20631;-65
2022/09/11 10:01:56;;;;;;;10.38;7.65;;;21.00;78.80;;;;;;9170846;19;20482;-64
2022/09/11 10:05:15;;;;;;;;;;;21.10;78.80;;;;;;9170369;19;20033;-64
2022/09/11 10:08:32;;;;;;;12.63;8.23;;;21.10;78.70;;;;;;9167956;19;20316;-65
2022/09/11 10:11:36;;;;;;;11.77;8.65;;;21.30;78.60;;;;;;9169291;19;20011;-65
2022/09/11 10:14:51;;;;;;;11.18;7.20;;;21.40;78.60;;;;;;9169869;19;20013;-65
2022/09/11 10:18:17;;;;;;;9.80;6.47;;;21.50;78.30;;;;;;9170042;19;20030;-64
2022/09/11 10:21:28;;;;;;;15.05;6.03;;;21.50;78.10;;;;;;9170536;19;20006;-64
2022/09/11 10:24:33;;;;;;;14.32;5.90;;;21.60;77.70;;;;;;9176564;19;20018;-64
2022/09/11 10:27:44;;;;;;;9.07;5.90;;;21.60;77.50;;;;;;9177166;19;20493;-65
2022/09/11 10:30:58;;;;;;;13.85;5.10;;;21.70;77.40;;;;;;9176814;19;20035;-67
2022/09/11 10:34:01;;;;;;;6.43;4.45;;;21.80;77.40;;;;;;9176814;19;20506;-64
2022/09/11 10:37:09;;;;;;;;;;;21.80;77.40;;;;;;9173709;19;20071;-65
2022/09/11 10:40:22;;;;;;;6.63;4.13;;;21.90;77.40;;;;;;9177305;19;19927;-65
2022/09/11 10:43:30;;;;;;;9.27;4.23;;;22.00;77.10;;;;;;9178116;19;20317;-64
2022/09/11 10:46:36;;;;;;;6.25;2.47;;;22.20;77.00;;;;;;9176270;19;20052;-63
2022/09/11 10:49:43;;;;;;;4.07;1.90;;;22.30;76.70;;;;;;9178212;19;20022;-63
2022/09/11 10:52:57;;;;;;;6.75;2.20;;;22.40;76.20;;;;;;9183882;19;20388;-64
2022/09/11 10:56:04;;;;;;;4.32;1.70;;;22.40;75.50;;;;;;9183144;19;20094;-64
2022/09/11 10:59:18;;;;;;;5.95;2.42;;;22.50;75.40;;;;;;9184547;19;20032;-64
2022/09/11 11:02:30;;;;;;;4.70;2.30;;;22.50;75.00;;;;;;9183931;19;20051;-64
2022/09/11 11:05:42;;;;;;;7.10;2.67;;;22.50;74.90;;;;;;9183880;19;20006;-65
2022/09/11 11:09:06;;;;;;;6.45;2.72;;;22.50;74.80;;;;;;9182762;19;20014;-64
2022/09/11 11:12:24;;;;;;;4.82;2.60;;;22.50;74.60;;;;;;9182428;19;20055;-65
2022/09/11 11:15:42;;;;;;;3.97;2.25;;;22.50;74.70;;;;;;9181314;19;20021;-63
2022/09/11 11:19:06;;;;;;;5.00;1.70;;;22.50;74.80;;;;;;9177565;19;20078;-64
2022/09/11 11:22:17;;;;;;;;;;;22.60;74.50;;;;;;9176536;19;20359;-64
2022/09/11 11:25:29;;;;;;;3.78;1.55;;;22.80;74.90;;;;;;9176035;19;19923;-64
2022/09/11 11:28:50;;;;;;;2.15;1.20;;;22.90;74.70;;;;;;9169253;19;20515;-65
2022/09/11 11:32:10;;;;;;;2.78;1.38;;;23.20;74.10;;;;;;9174823;19;20019;-65
2022/09/11 11:35:22;;;;;;;2.30;1.13;;;23.40;73.80;;;;;;9169828;19;20023;-65
2022/09/11 11:38:32;;;;;;;2.63;1.08;;;23.60;73.50;;;;;;9175134;19;20046;-65
2022/09/11 11:41:43;;;;;;;12.25;2.97;;;23.90;73.10;;;;;;9173900;19;20019;-65
2022/09/11 11:44:53;;;;;;;9.10;2.05;;;24.10;72.50;;;;;;9169219;19;20019;-65
2022/09/11 11:47:57;;;;;;;2.65;1.48;;;24.30;72.10;;;;;;9174919;19;20021;-65
2022/09/11 11:51:05;;;;;;;4.63;1.75;;;24.50;71.90;;;;;;9168915;19;20086;-64
2022/09/11 11:54:19;;;;;;;5.68;1.58;;;24.70;71.50;;;;;;9172840;19;20021;-65
2022/09/11 11:57:30;;;;;;;3.45;1.10;;;24.90;71.10;;;;;;9172965;19;20387;-64
2022/09/11 12:00:38;;;;;;;3.88;1.45;;;25.10;70.80;;;;;;9174425;19;20019;-64
2022/09/11 12:03:49;;;;;;;5.10;1.42;;;25.20;70.50;;;;;;9174138;19;20388;-66
2022/09/11 12:06:53;;;;;;;3.90;1.52;;;25.40;70.00;;;;;;9172082;19;20030;-65
2022/09/11 12:09:57;;;;;;;;;;;25.50;69.70;;;;;;9171947;19;20019;-65
2022/09/11 12:13:06;;;;;;;4.90;1.20;;;25.70;69.80;;;;;;9172405;19;20637;-65
2022/09/11 12:16:17;;;;;;;2.53;1.00;;;25.70;69.40;;;;;;9173144;19;20030;-65
2022/09/11 12:19:24;;;;;;;4.63;1.23;;;25.80;68.80;;;;;;9172300;19;20019;-65
2022/09/11 12:22:36;;;;;;;1.50;0.95;;;25.80;68.50;;;;;;9172218;19;20010;-65
2022/09/11 12:26:03;;;;;;;2.05;1.10;;;25.90;68.00;;;;;;9167862;19;20021;-66
2022/09/11 12:29:50;;;;;;;4.13;1.45;;;25.90;67.60;;;;;;9164067;19;20356;-65
2022/09/11 12:32:57;;;;;;;4.00;1.17;;;25.90;67.40;;;;;;9165751;19;20070;-64
2022/09/11 12:36:01;;;;;;;5.85;1.60;;;25.90;67.70;;;;;;9162321;19;20022;-65
2022/09/11 12:39:18;;;;;;;2.60;1.33;;;26.00;67.60;;;;;;9173943;19;20029;-66
2022/09/11 12:42:47;;;;;;;3.88;1.35;;;26.00;67.30;;;;;;9173921;19;20682;-65
2022/09/11 12:45:50;;;;;;;1.00;0.90;;;26.10;66.80;;;;;;9167530;19;20024;-66
2022/09/11 12:48:57;;;;;;;;;;;26.20;67.10;;;;;;9168766;19;20014;-66
2022/09/11 12:52:32;;;;;;;3.47;1.73;;;26.30;67.40;;;;;;9170259;19;19974;-67
2022/09/11 12:55:42;;;;;;;2.97;1.60;;;26.30;66.80;;;;;;9171288;19;20054;-66
2022/09/11 12:58:48;;;;;;;2.88;1.35;;;26.40;66.80;;;;;;9169869;19;20102;-66
2022/09/11 13:01:52;;;;;;;3.15;1.80;;;26.50;66.60;;;;;;9172754;19;20014;-65
2022/09/11 13:04:59;;;;;;;2.88;1.38;;;26.60;66.40;;;;;;9172772;19;20006;-66
2022/09/11 13:08:15;;;;;;;3.80;1.50;;;26.60;65.90;;;;;;9168273;19;20029;-65
2022/09/11 13:11:38;;;;;;;4.18;1.60;;;26.70;65.50;;;;;;9169109;19;20023;-66
2022/09/11 13:14:49;;;;;;;3.10;1.35;;;26.70;64.90;;;;;;9165594;19;20110;-66
2022/09/11 13:17:53;;;;;;;3.55;1.42;;;26.70;65.20;;;;;;9164727;19;20035;-66
2022/09/11 13:20:59;;;;;;;;;;;26.70;65.10;;;;;;9161416;19;20043;-66
2022/09/11 13:24:04;;;;;;;3.70;1.15;;;26.60;65.40;;;;;;9163899;19;19921;-66
2022/09/11 13:27:15;;;;;;;4.03;1.20;;;26.70;65.30;;;;;;9163856;19;20019;-66
2022/09/11 13:30:22;;;;;;;4.65;1.40;;;26.60;64.90;;;;;;9162812;19;20103;-66
2022/09/11 13:33:29;;;;;;;3.58;1.02;;;26.60;64.60;;;;;;9163378;19;20022;-66
2022/09/11 13:36:36;;;;;;;3.97;1.27;;;26.50;64.30;;;;;;9161253;19;20025;-66
2022/09/11 13:39:42;;;;;;;6.35;1.10;;;26.50;64.20;;;;;;9165574;19;20018;-63
2022/09/11 13:42:47;;;;;;;1.85;1.00;;;26.50;64.20;;;;;;9163904;19;20082;-66
2022/09/11 13:46:10;;;;;;;3.58;1.42;;;26.40;64.00;;;;;;9165003;19;20018;-66
2022/09/11 13:49:28;;;;;;;2.08;1.00;;;26.30;63.20;;;;;;9159875;19;20086;-66
2022/09/11 13:52:36;;;;;;;3.42;1.05;;;26.30;63.10;;;;;;9165286;19;20018;-66
2022/09/11 13:55:40;;;;;;;7.55;1.80;;;26.20;63.10;;;;;;9161742;19;20090;-66
2022/09/11 13:58:43;;;;;;;;;;;26.10;63.20;;;;;;9172050;19;20070;-65
2022/09/11 14:01:54;;;;;;;4.70;2.67;;;26.00;63.70;;;;;;9173290;19;20692;-63
2022/09/11 14:05:09;;;;;;;2.75;1.85;;;25.90;63.80;;;;;;9172395;19;20014;-66
2022/09/11 14:08:26;;;;;;;5.68;2.10;;;25.70;63.60;;;;;;9171757;19;20019;-64
2022/09/11 14:11:32;;;;;;;5.68;2.20;;;25.50;64.00;;;;;;9173968;19;20371;-65
2022/09/11 14:14:36;;;;;;;4.47;2.28;;;25.40;63.60;;;;;;9170040;19;20014;-67
2022/09/11 14:17:41;;;;;;;5.80;2.38;;;25.20;63.60;;;;;;9171988;19;20011;-65
2022/09/11 14:20:46;;;;;;;7.93;3.40;;;25.10;63.60;;;;;;9171162;19;20019;-66
2022/09/11 14:23:55;;;;;;;7.40;2.70;;;24.90;63.80;;;;;;9172357;19;20089;-67
2022/09/11 14:27:00;;;;;;;5.07;2.70;;;24.80;63.80;;;;;;9171010;19;20432;-67
2022/09/11 14:30:26;;;;;;;4.80;2.85;;;24.60;63.90;;;;;;9169576;19;20018;-65
2022/09/11 14:33:30;;;;;;;6.55;2.75;;;24.50;63.90;;;;;;9170613;19;20428;-65
2022/09/11 14:36:34;;;;;;;6.20;3.47;;;24.30;64.30;;;;;;9168573;19;20010;-65
2022/09/11 14:39:42;;;;;;;9.23;3.95;;;24.20;64.50;;;;;;9169258;19;20020;-65
2022/09/11 14:42:47;;;;;;;5.38;3.40;;;24.00;64.60;;;;;;9170372;19;20017;-65
2022/09/11 14:45:51;;;;;;;9.32;3.78;;;23.90;64.80;;;;;;9171864;19;20561;-66
2022/09/11 14:48:54;;;;;;;9.25;3.70;;;23.80;65.00;;;;;;9168709;19;20097;-65
2022/09/11 14:51:59;;;;;;;8.48;3.88;;;23.70;65.20;;;;;;9169364;19;20505;-65
2022/09/11 14:55:06;;;;;;;7.05;3.53;;;23.50;65.30;;;;;;9165992;19;20051;-65
2022/09/11 14:58:09;;;;;;;9.02;3.67;;;23.50;65.40;;;;;;9170847;19;20026;-64
2022/09/11 15:01:14;;;;;;;;;;;23.40;65.50;;;;;;9170902;19;20034;-66
2022/09/11 15:04:19;;;;;;;;;;;23.30;65.60;;;;;;9170552;19;20612;-65
2022/09/11 15:07:24;;;;;;;6.80;3.40;;;23.30;65.80;;;;;;9169028;19;20479;-65
2022/09/11 15:10:31;;;;;;;5.07;2.97;;;23.20;65.80;;;;;;9167629;19;20026;-65
2022/09/11 15:13:35;;;;;;;6.00;3.40;;;23.10;65.90;;;;;;9167678;19;20027;-64
2022/09/11 15:16:39;;;;;;;8.30;3.15;;;23.00;66.00;;;;;;9168904;19;20487;-66
2022/09/11 15:19:44;;;;;;;5.80;3.00;;;23.00;66.00;;;;;;9169107;19;20019;-64
2022/09/11 15:22:49;;;;;;;3.78;2.38;;;23.00;66.00;;;;;;9169937;19;20348;-65
2022/09/11 15:26:01;;;;;;;4.18;2.78;;;22.90;66.00;;;;;;9169429;19;20035;-64
2022/09/11 15:29:08;;;;;;;5.93;3.10;;;22.90;66.70;;;;;;9168820;19;20027;-65
2022/09/11 15:32:13;;;;;;;6.22;2.63;;;22.90;66.20;;;;;;9168198;19;20055;-65
2022/09/11 15:35:18;;;;;;;5.85;2.63;;;22.90;66.20;;;;;;9164407;19;20057;-66
2022/09/11 15:38:22;;;;;;;3.35;2.20;;;22.90;66.30;;;;;;9169164;19;20878;-64
2022/09/11 15:41:29;;;;;;;3.85;2.58;;;22.90;66.20;;;;;;9168228;19;20015;-65
2022/09/11 15:44:36;;;;;;;5.88;2.40;;;22.90;66.10;;;;;;9168584;19;20019;-64
2022/09/11 15:47:40;;;;;;;8.75;2.80;;;23.00;66.10;;;;;;9168822;19;20033;-65
2022/09/11 15:50:44;;;;;;;5.63;2.67;;;23.00;66.10;;;;;;9165552;19;20018;-65
2022/09/11 15:53:48;;;;;;;;;;;23.00;66.10;;;;;;9171145;19;20018;-67
2022/09/11 15:56:54;;;;;;;3.83;2.40;;;23.00;66.10;;;;;;9168612;19;20380;-64
2022/09/11 15:59:58;;;;;;;3.90;2.30;;;22.90;66.10;;;;;;9168760;19;20051;-64
2022/09/11 16:03:01;;;;;;;;;;;22.90;66.20;;;;;;9168881;19;20014;-65
2022/09/11 16:06:08;;;;;;;3.67;2.53;;;22.90;66.20;;;;;;9168428;19;19929;-64
2022/09/11 16:09:15;;;;;;;3.65;2.17;;;22.90;66.30;;;;;;9169196;19;20086;-64
2022/09/11 16:12:20;;;;;;;3.28;2.38;;;22.90;66.20;;;;;;9175373;19;20021;-65